Rp Zug — HE7351 — position and weather

sailwx.info

Track history (hours):
 
Tides and Currents Weather Stations Pressure Air Temp Water Temp Dewpoint Dewpoint Depression Visibility Wind Speed Wind Dir Waves Ship Positions

Rp Zug

Last reported at 2017-Jan-20 21:29 UTC. Time now 2017-Jan-21 23:41 UTC.
Position N 49°12' E 008°23'.

Length 110 m; draft 1.6 m.

Type: Tanker. MMSI: 269057351.

Date/timePositionNaut miles runAvg speedWind from/ knotsBaromVisibWave heightAir tempDewpointWater temp
2017-Jan-20 21:29N 49°12' E 008°23'99 3.8
2017-Jan-19 19:27N 50°40' E 007°11'5 5.3
2017-Jan-19 18:33N 50°44' E 007°07'5 5.3
2017-Jan-19 17:33N 50°48' E 007°02'4 3.5
2017-Jan-19 16:33N 50°52' E 007°01'4 3.4
2017-Jan-19 15:30N 50°55' E 006°58'16 4.0
2017-Jan-19 11:31N 51°10' E 006°48'4 4.7
2017-Jan-19 10:33N 51°13' E 006°43'15 3.8
2017-Jan-19 06:33N 51°28' E 006°42'4 4.1
2017-Jan-19 05:33N 51°32' E 006°40'4 3.8
2017-Jan-19 04:33N 51°35' E 006°36'5 5.0
2017-Jan-19 03:33N 51°40' E 006°34'6 5.5
2017-Jan-19 02:33N 51°43' E 006°26'5 4.8
2017-Jan-19 01:33N 51°46' E 006°20'6 6.2
2017-Jan-19 00:33N 51°50' E 006°13'5 4.5
2017-Jan-18 23:33N 51°51' E 006°06'2 1.9
2017-Jan-18 22:33N 51°52' E 006°03'5 4.6
2017-Jan-18 21:33N 51°52' E 005°56'6 5.7
2017-Jan-18 20:33N 51°53' E 005°47'7 6.9
2017-Jan-18 19:33N 51°54' E 005°36'6 6.6
2017-Jan-18 18:33N 51°52' E 005°25'15 6.2
2017-Jan-18 16:04N 51°49' E 005°01'4 8.2
2017-Jan-18 15:33N 51°49' E 004°54'8 8.0
2017-Jan-18 14:34N 51°49' E 004°41'7 7.2
2017-Jan-18 13:33N 51°54' E 004°33'7 6.9
2017-Jan-18 12:33N 51°54' E 004°22'2 2.2
2017-Jan-18 11:33N 51°53' E 004°18'0 0.0
2017-Jan-18 10:33N 51°53' E 004°18'0 0.0
2017-Jan-18 09:33N 51°53' E 004°18'0 0.0
2017-Jan-18 08:33N 51°53' E 004°18'0 0.0
2017-Jan-18 07:33N 51°53' E 004°18'0 0.0
2017-Jan-18 06:33N 51°53' E 004°18'0 0.0
2017-Jan-18 05:33N 51°53' E 004°18'0 0.0
2017-Jan-18 04:33N 51°53' E 004°18'0 0.0
2017-Jan-18 03:33N 51°53' E 004°18'1 0.5
2017-Jan-18 02:33N 51°53' E 004°18'0 0.0
2017-Jan-18 01:33N 51°53' E 004°18'0 0.0
2017-Jan-18 00:33N 51°53' E 004°18'0 0.0
2017-Jan-17 23:33N 51°53' E 004°18'0 0.0
2017-Jan-17 22:33N 51°53' E 004°18'0 0.0
2017-Jan-17 21:33N 51°53' E 004°18'0 0.0
2017-Jan-17 20:33N 51°53' E 004°18'0 0.0
2017-Jan-17 19:33N 51°53' E 004°18'0 0.0
2017-Jan-17 18:33N 51°53' E 004°18'0 0.0
2017-Jan-17 17:33N 51°53' E 004°18'0 0.0
2017-Jan-17 16:33N 51°53' E 004°18'2 1.5
2017-Jan-17 15:33N 51°54' E 004°20'9 8.5
2017-Jan-17 14:33N 51°54' E 004°34'10 9.8
2017-Jan-17 13:33N 51°56' E 004°49'8 8.5
2017-Jan-17 12:33N 51°59' E 005°02'4 3.7
2017-Jan-17 11:34N 52°01' E 005°07'2 1.6
2017-Jan-17 10:33N 52°03' E 005°06'8 7.9
2017-Jan-17 09:33N 52°10' E 004°60'9 8.8
2017-Jan-17 08:33N 52°18' E 005°01'7 7.2
2017-Jan-17 07:33N 52°24' E 004°53'6 5.5
2017-Jan-17 06:33N 52°25' E 004°45'0 0.0
2017-Jan-17 05:33N 52°25' E 004°45'0 0.0
2017-Jan-17 04:33N 52°25' E 004°45'0 0.0
2017-Jan-17 03:33N 52°25' E 004°45'0 0.0
2017-Jan-17 02:34N 52°25' E 004°45'0 0.0
2017-Jan-17 01:33N 52°25' E 004°45'0 0.0
2017-Jan-17 00:33N 52°25' E 004°45'0 0.0
2017-Jan-16 23:33N 52°25' E 004°45'0 0.1
2017-Jan-16 22:34N 52°25' E 004°45'0 0.0
2017-Jan-16 21:34N 52°25' E 004°45'0 0.0
2017-Jan-16 20:34N 52°25' E 004°45'0 0.0
2017-Jan-16 19:34N 52°25' E 004°45'0 0.0
2017-Jan-16 18:34N 52°25' E 004°45'0 0.0
2017-Jan-16 17:33N 52°25' E 004°45'0 0.0
2017-Jan-16 16:34N 52°25' E 004°45'0 0.0
2017-Jan-16 15:34N 52°25' E 004°45'0 0.0
2017-Jan-16 14:33N 52°25' E 004°45'0 0.0
2017-Jan-16 13:33N 52°25' E 004°45'0 0.0
2017-Jan-16 12:33N 52°25' E 004°45'0 0.0
2017-Jan-16 11:33N 52°25' E 004°45'0 0.0
2017-Jan-16 10:34N 52°25' E 004°45'0 0.0
2017-Jan-16 09:33N 52°25' E 004°45'0 0.0
2017-Jan-16 08:33N 52°25' E 004°45'0 0.0
2017-Jan-16 07:34N 52°25' E 004°45'0 0.0
2017-Jan-16 06:33N 52°25' E 004°45'0 0.0
2017-Jan-16 05:33N 52°25' E 004°45'0 0.0
2017-Jan-16 04:33N 52°25' E 004°45'0 0.0
2017-Jan-16 03:34N 52°25' E 004°45'0 0.0
2017-Jan-16 02:33N 52°25' E 004°45'0 0.0
2017-Jan-16 01:33N 52°25' E 004°45'0 0.0
2017-Jan-16 00:33N 52°25' E 004°45'0 0.0
2017-Jan-15 23:33N 52°25' E 004°45'0 0.0
2017-Jan-15 22:33N 52°25' E 004°45'0 0.0
2017-Jan-15 21:34N 52°25' E 004°45'0 0.0
2017-Jan-15 20:34N 52°25' E 004°45'3 3.5
2017-Jan-15 19:34N 52°25' E 004°50'7 6.9
2017-Jan-15 18:33N 52°21' E 004°59'8 7.9
2017-Jan-15 17:33N 52°13' E 005°00'7 7.2
2017-Jan-15 16:33N 52°06' E 005°05'10 7.6
2017-Jan-15 15:15N 51°59' E 005°16'3 4.0
2017-Jan-15 14:34N 51°58' E 005°20'8 5.8
2017-Jan-15 13:07N 51°53' E 005°31'610.3
2017-Jan-15 12:33N 51°54' E 005°41'9 9.2
2017-Jan-15 11:33N 51°52' E 005°55'9 8.7
2017-Jan-15 10:33N 51°51' E 006°09'10 9.7
2017-Jan-15 09:33N 51°45' E 006°22'8 8.4
2017-Jan-15 08:33N 51°40' E 006°32'7 7.1
2017-Jan-15 07:31N 51°34' E 006°41'18 7.5
2017-Jan-15 05:07N 51°17' E 006°42'3 5.4
2017-Jan-15 04:33N 51°14' E 006°44'16 7.3
2017-Jan-15 02:24N 51°01' E 006°58'7 8.5
2017-Jan-15 01:33N 50°54' E 006°60'4 4.0
2017-Jan-15 00:27N 50°49' E 007°00'0 0.0
2017-Jan-14 23:30N 50°49' E 007°00'0 0.0
2017-Jan-14 22:32N 50°49' E 007°00'0 0.0
2017-Jan-14 21:28N 50°49' E 007°00'0 0.0
2017-Jan-14 20:30N 50°49' E 007°00'0 0.0
2017-Jan-14 19:27N 50°49' E 007°00'0 0.0
2017-Jan-14 18:24N 50°49' E 007°00'0 0.0
2017-Jan-14 17:33N 50°49' E 007°00'0 0.2
2017-Jan-14 16:33N 50°49' E 007°00'2 1.8
2017-Jan-14 15:33N 50°48' E 007°02'0 0.0
2017-Jan-14 14:33N 50°48' E 007°02'0 0.0
2017-Jan-14 13:33N 50°48' E 007°02'0 0.0
2017-Jan-14 12:33N 50°48' E 007°02'0 0.0
2017-Jan-14 11:30N 50°48' E 007°02'0 0.0
2017-Jan-14 10:33N 50°48' E 007°02'0 0.0
2017-Jan-14 09:33N 50°48' E 007°02'0 0.0
2017-Jan-14 08:33N 50°48' E 007°02'0 0.0
2017-Jan-14 07:30N 50°48' E 007°02'0 0.0
2017-Jan-14 06:33N 50°48' E 007°02'0 0.0
2017-Jan-14 05:33N 50°48' E 007°02'0 0.0
2017-Jan-14 04:33N 50°48' E 007°02'0 0.0
2017-Jan-14 03:33N 50°48' E 007°02'0 0.0
2017-Jan-13 23:32N 50°48' E 007°02'0 0.0
2017-Jan-13 22:32N 50°48' E 007°02'0 0.0
2017-Jan-13 21:33N 50°48' E 007°02'0 0.0
2017-Jan-13 20:32N 50°48' E 007°02'0 0.0
2017-Jan-13 19:31N 50°48' E 007°02'0 0.0
2017-Jan-13 18:30N 50°48' E 007°02'0 0.0
2017-Jan-13 17:28N 50°48' E 007°02'0 0.0
2017-Jan-13 16:25N 50°48' E 007°02'0 0.0
2017-Jan-13 15:33N 50°48' E 007°02'0 0.0
2017-Jan-13 14:33N 50°48' E 007°02'0 0.0
2017-Jan-13 13:33N 50°48' E 007°02'0 0.0
2017-Jan-13 12:33N 50°48' E 007°02'0 0.0
2017-Jan-13 11:33N 50°48' E 007°02'0 0.0
2017-Jan-13 10:33N 50°48' E 007°02'0 0.0
2017-Jan-13 09:32N 50°48' E 007°02'0 0.0
2017-Jan-13 08:32N 50°48' E 007°02'0 0.0
2017-Jan-13 07:29N 50°48' E 007°02'0 0.0
2017-Jan-13 06:32N 50°48' E 007°02'0 0.0
2017-Jan-13 05:30N 50°48' E 007°02'0 0.0
2017-Jan-13 04:33N 50°48' E 007°02'0 0.0
2017-Jan-13 03:31N 50°48' E 007°02'0 0.0
2017-Jan-13 02:33N 50°48' E 007°02'0 0.0
2017-Jan-13 01:33N 50°48' E 007°02'0 0.0
2017-Jan-13 00:33N 50°48' E 007°02'0 0.0
2017-Jan-12 23:32N 50°48' E 007°02'0 0.0
2017-Jan-12 22:21N 50°48' E 007°02'0 0.0
2017-Jan-12 21:09N 50°48' E 007°02'0 0.0
2017-Jan-12 20:30N 50°48' E 007°02'0 0.0
2017-Jan-12 19:30N 50°48' E 007°02'0 0.0
2017-Jan-12 18:09N 50°48' E 007°02'0 0.0
2017-Jan-12 16:08N 50°48' E 007°02'5 8.1
2017-Jan-12 15:33N 50°44' E 007°07'2 0.2
2017-Jan-12 01:22N 50°43' E 007°09'4 4.9
2017-Jan-12 00:33N 50°46' E 007°05'5 4.7
2017-Jan-11 23:30N 50°50' E 006°59'1 0.2
2017-Jan-11 16:31N 50°51' E 006°59'0 0.0
2017-Jan-11 14:26N 50°51' E 006°59'0 0.0
2017-Jan-11 13:31N 50°51' E 006°59'0 0.0
2017-Jan-11 12:18N 50°51' E 006°59'0 0.0
2017-Jan-11 10:09N 50°51' E 006°59'3 4.9
2017-Jan-11 09:33N 50°49' E 007°02'0 0.4
2017-Jan-11 08:21N 50°48' E 007°02'0 0.0
2017-Jan-11 07:33N 50°48' E 007°02'0 0.0
2017-Jan-11 06:33N 50°48' E 007°02'0 0.0
2017-Jan-11 05:25N 50°48' E 007°02'0 0.0
2017-Jan-11 04:33N 50°48' E 007°02'0 0.0
2017-Jan-11 03:16N 50°48' E 007°02'3 4.6
2017-Jan-11 02:33N 50°46' E 007°05'  
Track history (hours):
 
Tides and Currents Weather Stations Pressure Air Temp Water Temp Dewpoint Dewpoint Depression Visibility Wind Speed Wind Dir Waves Ship Positions

Rp Zug

Last reported at 2017-Jan-20 21:29 UTC. Time now 2017-Jan-21 23:41 UTC.
Position N 49°12' E 008°23'.

Length 110 m; draft 1.6 m.

Type: Tanker. MMSI: 269057351.

Date/timePositionNaut miles runAvg speedWind from/ knotsBaromVisibWave heightAir tempDewpointWater temp
2017-Jan-20 21:29N 49°12' E 008°23'99 3.8
2017-Jan-19 19:27N 50°40' E 007°11'5 5.3
2017-Jan-19 18:33N 50°44' E 007°07'5 5.3
2017-Jan-19 17:33N 50°48' E 007°02'4 3.5
2017-Jan-19 16:33N 50°52' E 007°01'4 3.4
2017-Jan-19 15:30N 50°55' E 006°58'16 4.0
2017-Jan-19 11:31N 51°10' E 006°48'4 4.7
2017-Jan-19 10:33N 51°13' E 006°43'15 3.8
2017-Jan-19 06:33N 51°28' E 006°42'4 4.1
2017-Jan-19 05:33N 51°32' E 006°40'4 3.8
2017-Jan-19 04:33N 51°35' E 006°36'5 5.0
2017-Jan-19 03:33N 51°40' E 006°34'6 5.5
2017-Jan-19 02:33N 51°43' E 006°26'5 4.8
2017-Jan-19 01:33N 51°46' E 006°20'6 6.2
2017-Jan-19 00:33N 51°50' E 006°13'5 4.5
2017-Jan-18 23:33N 51°51' E 006°06'2 1.9
2017-Jan-18 22:33N 51°52' E 006°03'5 4.6
2017-Jan-18 21:33N 51°52' E 005°56'6 5.7
2017-Jan-18 20:33N 51°53' E 005°47'7 6.9
2017-Jan-18 19:33N 51°54' E 005°36'6 6.6
2017-Jan-18 18:33N 51°52' E 005°25'15 6.2
2017-Jan-18 16:04N 51°49' E 005°01'4 8.2
2017-Jan-18 15:33N 51°49' E 004°54'8 8.0
2017-Jan-18 14:34N 51°49' E 004°41'7 7.2
2017-Jan-18 13:33N 51°54' E 004°33'7 6.9
2017-Jan-18 12:33N 51°54' E 004°22'2 2.2
2017-Jan-18 11:33N 51°53' E 004°18'0 0.0
2017-Jan-18 10:33N 51°53' E 004°18'0 0.0
2017-Jan-18 09:33N 51°53' E 004°18'0 0.0
2017-Jan-18 08:33N 51°53' E 004°18'0 0.0
2017-Jan-18 07:33N 51°53' E 004°18'0 0.0
2017-Jan-18 06:33N 51°53' E 004°18'0 0.0
2017-Jan-18 05:33N 51°53' E 004°18'0 0.0
2017-Jan-18 04:33N 51°53' E 004°18'0 0.0
2017-Jan-18 03:33N 51°53' E 004°18'1 0.5
2017-Jan-18 02:33N 51°53' E 004°18'0 0.0
2017-Jan-18 01:33N 51°53' E 004°18'0 0.0
2017-Jan-18 00:33N 51°53' E 004°18'0 0.0
2017-Jan-17 23:33N 51°53' E 004°18'0 0.0
2017-Jan-17 22:33N 51°53' E 004°18'0 0.0
2017-Jan-17 21:33N 51°53' E 004°18'0 0.0
2017-Jan-17 20:33N 51°53' E 004°18'0 0.0
2017-Jan-17 19:33N 51°53' E 004°18'0 0.0
2017-Jan-17 18:33N 51°53' E 004°18'0 0.0
2017-Jan-17 17:33N 51°53' E 004°18'0 0.0
2017-Jan-17 16:33N 51°53' E 004°18'2 1.5
2017-Jan-17 15:33N 51°54' E 004°20'9 8.5
2017-Jan-17 14:33N 51°54' E 004°34'10 9.8
2017-Jan-17 13:33N 51°56' E 004°49'8 8.5
2017-Jan-17 12:33N 51°59' E 005°02'4 3.7
2017-Jan-17 11:34N 52°01' E 005°07'2 1.6
2017-Jan-17 10:33N 52°03' E 005°06'8 7.9
2017-Jan-17 09:33N 52°10' E 004°60'9 8.8
2017-Jan-17 08:33N 52°18' E 005°01'7 7.2
2017-Jan-17 07:33N 52°24' E 004°53'6 5.5
2017-Jan-17 06:33N 52°25' E 004°45'0 0.0
2017-Jan-17 05:33N 52°25' E 004°45'0 0.0
2017-Jan-17 04:33N 52°25' E 004°45'0 0.0
2017-Jan-17 03:33N 52°25' E 004°45'0 0.0
2017-Jan-17 02:34N 52°25' E 004°45'0 0.0
2017-Jan-17 01:33N 52°25' E 004°45'0 0.0
2017-Jan-17 00:33N 52°25' E 004°45'0 0.0
2017-Jan-16 23:33N 52°25' E 004°45'0 0.1
2017-Jan-16 22:34N 52°25' E 004°45'0 0.0
2017-Jan-16 21:34N 52°25' E 004°45'0 0.0
2017-Jan-16 20:34N 52°25' E 004°45'0 0.0
2017-Jan-16 19:34N 52°25' E 004°45'0 0.0
2017-Jan-16 18:34N 52°25' E 004°45'0 0.0
2017-Jan-16 17:33N 52°25' E 004°45'0 0.0
2017-Jan-16 16:34N 52°25' E 004°45'0 0.0
2017-Jan-16 15:34N 52°25' E 004°45'0 0.0
2017-Jan-16 14:33N 52°25' E 004°45'0 0.0
2017-Jan-16 13:33N 52°25' E 004°45'0 0.0
2017-Jan-16 12:33N 52°25' E 004°45'0 0.0
2017-Jan-16 11:33N 52°25' E 004°45'0 0.0
2017-Jan-16 10:34N 52°25' E 004°45'0 0.0
2017-Jan-16 09:33N 52°25' E 004°45'0 0.0
2017-Jan-16 08:33N 52°25' E 004°45'0 0.0
2017-Jan-16 07:34N 52°25' E 004°45'0 0.0
2017-Jan-16 06:33N 52°25' E 004°45'0 0.0
2017-Jan-16 05:33N 52°25' E 004°45'0 0.0
2017-Jan-16 04:33N 52°25' E 004°45'0 0.0
2017-Jan-16 03:34N 52°25' E 004°45'0 0.0
2017-Jan-16 02:33N 52°25' E 004°45'0 0.0
2017-Jan-16 01:33N 52°25' E 004°45'0 0.0
2017-Jan-16 00:33N 52°25' E 004°45'0 0.0
2017-Jan-15 23:33N 52°25' E 004°45'0 0.0
2017-Jan-15 22:33N 52°25' E 004°45'0 0.0
2017-Jan-15 21:34N 52°25' E 004°45'0 0.0
2017-Jan-15 20:34N 52°25' E 004°45'3 3.5
2017-Jan-15 19:34N 52°25' E 004°50'7 6.9
2017-Jan-15 18:33N 52°21' E 004°59'8 7.9
2017-Jan-15 17:33N 52°13' E 005°00'7 7.2
2017-Jan-15 16:33N 52°06' E 005°05'10 7.6
2017-Jan-15 15:15N 51°59' E 005°16'3 4.0
2017-Jan-15 14:34N 51°58' E 005°20'8 5.8
2017-Jan-15 13:07N 51°53' E 005°31'610.3
2017-Jan-15 12:33N 51°54' E 005°41'9 9.2
2017-Jan-15 11:33N 51°52' E 005°55'9 8.7
2017-Jan-15 10:33N 51°51' E 006°09'10 9.7
2017-Jan-15 09:33N 51°45' E 006°22'8 8.4
2017-Jan-15 08:33N 51°40' E 006°32'7 7.1
2017-Jan-15 07:31N 51°34' E 006°41'18 7.5
2017-Jan-15 05:07N 51°17' E 006°42'3 5.4
2017-Jan-15 04:33N 51°14' E 006°44'16 7.3
2017-Jan-15 02:24N 51°01' E 006°58'7 8.5
2017-Jan-15 01:33N 50°54' E 006°60'4 4.0
2017-Jan-15 00:27N 50°49' E 007°00'0 0.0
2017-Jan-14 23:30N 50°49' E 007°00'0 0.0
2017-Jan-14 22:32N 50°49' E 007°00'0 0.0
2017-Jan-14 21:28N 50°49' E 007°00'0 0.0
2017-Jan-14 20:30N 50°49' E 007°00'0 0.0
2017-Jan-14 19:27N 50°49' E 007°00'0 0.0
2017-Jan-14 18:24N 50°49' E 007°00'0 0.0
2017-Jan-14 17:33N 50°49' E 007°00'0 0.2
2017-Jan-14 16:33N 50°49' E 007°00'2 1.8
2017-Jan-14 15:33N 50°48' E 007°02'0 0.0
2017-Jan-14 14:33N 50°48' E 007°02'0 0.0
2017-Jan-14 13:33N 50°48' E 007°02'0 0.0
2017-Jan-14 12:33N 50°48' E 007°02'0 0.0
2017-Jan-14 11:30N 50°48' E 007°02'0 0.0
2017-Jan-14 10:33N 50°48' E 007°02'0 0.0
2017-Jan-14 09:33N 50°48' E 007°02'0 0.0
2017-Jan-14 08:33N 50°48' E 007°02'0 0.0
2017-Jan-14 07:30N 50°48' E 007°02'0 0.0
2017-Jan-14 06:33N 50°48' E 007°02'0 0.0
2017-Jan-14 05:33N 50°48' E 007°02'0 0.0
2017-Jan-14 04:33N 50°48' E 007°02'0 0.0
2017-Jan-14 03:33N 50°48' E 007°02'0 0.0
2017-Jan-13 23:32N 50°48' E 007°02'0 0.0
2017-Jan-13 22:32N 50°48' E 007°02'0 0.0
2017-Jan-13 21:33N 50°48' E 007°02'0 0.0
2017-Jan-13 20:32N 50°48' E 007°02'0 0.0
2017-Jan-13 19:31N 50°48' E 007°02'0 0.0
2017-Jan-13 18:30N 50°48' E 007°02'0 0.0
2017-Jan-13 17:28N 50°48' E 007°02'0 0.0
2017-Jan-13 16:25N 50°48' E 007°02'0 0.0
2017-Jan-13 15:33N 50°48' E 007°02'0 0.0
2017-Jan-13 14:33N 50°48' E 007°02'0 0.0
2017-Jan-13 13:33N 50°48' E 007°02'0 0.0
2017-Jan-13 12:33N 50°48' E 007°02'0 0.0
2017-Jan-13 11:33N 50°48' E 007°02'0 0.0
2017-Jan-13 10:33N 50°48' E 007°02'0 0.0
2017-Jan-13 09:32N 50°48' E 007°02'0 0.0
2017-Jan-13 08:32N 50°48' E 007°02'0 0.0
2017-Jan-13 07:29N 50°48' E 007°02'0 0.0
2017-Jan-13 06:32N 50°48' E 007°02'0 0.0
2017-Jan-13 05:30N 50°48' E 007°02'0 0.0
2017-Jan-13 04:33N 50°48' E 007°02'0 0.0
2017-Jan-13 03:31N 50°48' E 007°02'0 0.0
2017-Jan-13 02:33N 50°48' E 007°02'0 0.0
2017-Jan-13 01:33N 50°48' E 007°02'0 0.0
2017-Jan-13 00:33N 50°48' E 007°02'0 0.0
2017-Jan-12 23:32N 50°48' E 007°02'0 0.0
2017-Jan-12 22:21N 50°48' E 007°02'0 0.0
2017-Jan-12 21:09N 50°48' E 007°02'0 0.0
2017-Jan-12 20:30N 50°48' E 007°02'0 0.0
2017-Jan-12 19:30N 50°48' E 007°02'0 0.0
2017-Jan-12 18:09N 50°48' E 007°02'0 0.0
2017-Jan-12 16:08N 50°48' E 007°02'5 8.1
2017-Jan-12 15:33N 50°44' E 007°07'2 0.2
2017-Jan-12 01:22N 50°43' E 007°09'4 4.9
2017-Jan-12 00:33N 50°46' E 007°05'5 4.7
2017-Jan-11 23:30N 50°50' E 006°59'1 0.2
2017-Jan-11 16:31N 50°51' E 006°59'0 0.0
2017-Jan-11 14:26N 50°51' E 006°59'0 0.0
2017-Jan-11 13:31N 50°51' E 006°59'0 0.0
2017-Jan-11 12:18N 50°51' E 006°59'0 0.0
2017-Jan-11 10:09N 50°51' E 006°59'3 4.9
2017-Jan-11 09:33N 50°49' E 007°02'0 0.4
2017-Jan-11 08:21N 50°48' E 007°02'0 0.0
2017-Jan-11 07:33N 50°48' E 007°02'0 0.0
2017-Jan-11 06:33N 50°48' E 007°02'0 0.0
2017-Jan-11 05:25N 50°48' E 007°02'0 0.0
2017-Jan-11 04:33N 50°48' E 007°02'0 0.0
2017-Jan-11 03:16N 50°48' E 007°02'3 4.6
2017-Jan-11 02:33N 50°46' E 007°05'  

Dump ship's entire track history